Time;durP1;ratioP1;P1;durP2;ratioP2;P2;SDS_P1;SDS_P2;PMS_P1;PMS_P2;Temp;Humidity;BMP_temperature;BMP_pressure;BME280_temperature;BME280_humidity;BME280_pressure;Samples;Min_cycle;Max_cycle;Signal;HPM_P1;HPM_P2
2022/02/04 00:05:53;;;;;;;52.20;28.35;;;;;;;;;;5052481;28;20032;-47
2022/02/04 00:24:44;;;;;;;86.28;38.65;;;;;;;;;;5053061;28;20086;-46
2022/02/04 00:27:18;;;;;;;63.78;31.45;;;;;;;;;;5052577;28;20024;-45
2022/02/04 00:32:25;;;;;;;57.78;27.92;;;;;;;;;;5052762;28;20029;-48
2022/02/04 00:35:10;;;;;;;49.97;25.27;;;;;;;;;;5052547;28;20025;-46
2022/02/04 00:38:01;;;;;;;52.20;27.10;;;;;;;;;;5052510;28;20032;-44
2022/02/04 00:40:25;;;;;;;62.15;31.48;;;;;;;;;;5052185;28;20037;-47
2022/02/04 00:42:55;;;;;;;70.32;34.00;;;;;;;;;;5052607;28;20067;-49
2022/02/04 00:45:28;;;;;;;67.55;35.63;;;;;;;;;;5052433;28;20044;-44
2022/02/04 00:48:04;;;;;;;69.25;32.88;;;;;;;;;;5052637;28;20017;-44
2022/02/04 00:50:37;;;;;;;60.17;30.73;;;;;;;;;;5052521;28;20109;-47
2022/02/04 00:53:19;;;;;;;65.70;30.42;;;;;;;;;;5052340;28;20021;-45
2022/02/04 00:56:00;;;;;;;58.17;30.52;;;;;;;;;;5052431;28;20440;-45
2022/02/04 01:25:57;;;;;;;48.85;24.90;;;;;;;;;;5056320;28;20509;-44
2022/02/04 01:28:25;;;;;;;48.72;24.58;;;;;;;;;;5055658;28;20493;-49
2022/02/04 01:30:51;;;;;;;40.03;20.67;;;;;;;;;;5055933;28;20029;-44
2022/02/04 01:33:17;;;;;;;46.72;23.20;;;;;;;;;;5055820;28;20112;-47
2022/02/04 01:35:43;;;;;;;43.50;22.70;;;;;;;;;;5055869;28;20031;-48
2022/02/04 01:38:09;;;;;;;50.00;25.17;;;;;;;;;;5055566;28;20087;-49
2022/02/04 01:40:35;;;;;;;51.83;24.35;;;;;;;;;;5055782;28;20021;-47
2022/02/04 01:43:02;;;;;;;48.72;24.98;;;;;;;;;;5055778;28;20366;-48
2022/02/04 01:45:28;;;;;;;51.67;27.45;;;;;;;;;;5055489;28;20017;-44
2022/02/04 01:47:57;;;;;;;52.88;26.48;;;;;;;;;;5055576;28;20111;-48
2022/02/04 01:50:23;;;;;;;53.08;25.85;;;;;;;;;;5055999;28;20024;-44
2022/02/04 01:52:50;;;;;;;49.50;26.60;;;;;;;;;;5055265;28;20104;-48
2022/02/04 01:55:16;;;;;;;51.10;25.73;;;;;;;;;;5055517;28;20108;-49
2022/02/04 01:57:42;;;;;;;53.80;25.17;;;;;;;;;;5055501;28;20107;-48
2022/02/04 02:00:09;;;;;;;51.10;26.23;;;;;;;;;;5054139;28;20175;-44
2022/02/04 02:02:35;;;;;;;53.78;26.20;;;;;;;;;;5055500;28;20025;-49
2022/02/04 02:05:01;;;;;;;56.83;26.25;;;;;;;;;;5055263;28;20465;-46
2022/02/04 02:07:29;;;;;;;56.13;26.23;;;;;;;;;;5055133;28;20035;-48
2022/02/04 02:12:28;;;;;;;53.55;25.35;;;;;;;;;;5055095;28;20032;-48
2022/02/04 02:34:47;;;;;;;40.83;20.65;;;;;;;;;;5053555;28;20140;-48
2022/02/04 02:47:48;;;;;;;29.13;16.63;;;;;;;;;;5054679;28;20040;-47
2022/02/04 03:03:05;;;;;;;30.23;14.82;;;;;;;;;;5054580;28;20032;-45
2022/02/04 03:05:31;;;;;;;30.23;14.57;;;;;;;;;;5054226;28;20110;-47
2022/02/04 03:07:57;;;;;;;24.55;13.00;;;;;;;;;;5054040;28;20461;-45
2022/02/04 03:10:23;;;;;;;23.42;13.20;;;;;;;;;;5054220;28;20029;-44
2022/02/04 03:12:50;;;;;;;30.45;14.45;;;;;;;;;;5054051;28;20020;-44
2022/02/04 03:15:16;;;;;;;24.52;12.50;;;;;;;;;;5053967;28;20025;-44
2022/02/04 03:17:47;;;;;;;29.83;13.85;;;;;;;;;;5053947;28;20016;-44
2022/02/04 03:20:14;;;;;;;28.98;13.25;;;;;;;;;;5054013;28;20108;-47
2022/02/04 03:22:41;;;;;;;24.50;12.50;;;;;;;;;;5053706;28;20061;-46
2022/02/04 03:25:10;;;;;;;21.27;10.82;;;;;;;;;;5052453;28;20025;-47
2022/02/04 03:27:45;;;;;;;18.10;9.98;;;;;;;;;;5053752;28;20021;-44
2022/02/04 03:30:19;;;;;;;23.40;11.18;;;;;;;;;;5053788;28;20040;-44
2022/02/04 03:32:53;;;;;;;22.00;11.20;;;;;;;;;;5053901;28;20517;-45
2022/02/04 03:35:23;;;;;;;21.00;11.68;;;;;;;;;;5053510;28;20143;-48
2022/02/04 03:37:50;;;;;;;21.02;10.85;;;;;;;;;;5053293;28;20028;-49
2022/02/04 03:40:17;;;;;;;24.48;12.32;;;;;;;;;;5053664;28;20036;-45
2022/02/04 03:42:44;;;;;;;22.40;11.32;;;;;;;;;;5053492;28;20018;-44
2022/02/04 03:45:10;;;;;;;23.83;13.10;;;;;;;;;;5053393;28;20429;-48
2022/02/04 03:47:37;;;;;;;24.42;11.95;;;;;;;;;;5053441;28;20025;-44
2022/02/04 03:50:03;;;;;;;29.52;13.30;;;;;;;;;;5053367;28;20377;-44
2022/02/04 03:52:29;;;;;;;24.77;11.80;;;;;;;;;;5053151;28;20032;-45
2022/02/04 03:54:55;;;;;;;22.95;12.68;;;;;;;;;;5053238;28;20029;-44
2022/02/04 03:57:21;;;;;;;24.50;13.27;;;;;;;;;;5053317;28;20102;-47
2022/02/04 03:59:50;;;;;;;24.67;13.73;;;;;;;;;;5053251;28;20039;-47
2022/02/04 04:02:16;;;;;;;28.83;14.18;;;;;;;;;;5053231;28;20489;-49
2022/02/04 04:04:42;;;;;;;26.40;13.82;;;;;;;;;;5053170;28;20031;-48
2022/02/04 04:07:08;;;;;;;23.98;14.10;;;;;;;;;;5053001;28;20017;-49
2022/02/04 04:09:39;;;;;;;24.98;12.88;;;;;;;;;;5053165;28;20093;-48
2022/02/04 04:12:05;;;;;;;28.65;13.93;;;;;;;;;;5052978;28;20025;-48
2022/02/04 04:14:31;;;;;;;26.10;13.90;;;;;;;;;;5052915;28;20396;-47
2022/02/04 04:16:57;;;;;;;27.42;13.75;;;;;;;;;;5053059;28;20029;-44
2022/02/04 04:19:24;;;;;;;24.33;13.23;;;;;;;;;;5053045;28;20389;-44
2022/02/04 04:21:50;;;;;;;25.00;13.73;;;;;;;;;;5052813;28;20033;-45
2022/02/04 04:24:17;;;;;;;27.88;13.70;;;;;;;;;;5052963;28;20486;-44
2022/02/04 04:26:43;;;;;;;28.95;13.73;;;;;;;;;;5052961;28;20025;-44
2022/02/04 04:29:09;;;;;;;26.77;13.77;;;;;;;;;;5052629;28;20041;-44
2022/02/04 04:31:36;;;;;;;27.45;13.25;;;;;;;;;;5052856;28;20393;-45
2022/02/04 04:34:03;;;;;;;29.08;13.80;;;;;;;;;;5052752;28;20044;-44
2022/02/04 04:36:29;;;;;;;24.25;12.52;;;;;;;;;;5052380;28;20033;-43
2022/02/04 04:39:22;;;;;;;25.13;12.18;;;;;;;;;;5051567;28;20370;-47
2022/02/04 04:41:55;;;;;;;25.20;13.23;;;;;;;;;;5052593;28;20037;-49
2022/02/04 05:30:43;;;;;;;50.40;23.35;;;;;;;;;;5056020;28;20035;-48
2022/02/04 05:33:10;;;;;;;47.03;21.60;;;;;;;;;;5055853;28;20028;-50
2022/02/04 05:35:36;;;;;;;47.13;22.85;;;;;;;;;;5055940;28;20040;-48
2022/02/04 05:38:03;;;;;;;53.72;24.42;;;;;;;;;;5055730;28;20074;-48
2022/02/04 05:40:37;;;;;;;53.78;23.60;;;;;;;;;;5055896;28;20082;-49
2022/02/04 05:43:13;;;;;;;53.88;25.08;;;;;;;;;;5055784;28;20127;-49
2022/02/04 05:45:40;;;;;;;67.45;27.20;;;;;;;;;;5056373;28;20025;-49
2022/02/04 05:48:09;;;;;;;68.32;26.75;;;;;;;;;;5055729;28;20032;-49
2022/02/04 05:50:51;;;;;;;74.13;28.88;;;;;;;;;;5055712;28;20420;-49
2022/02/04 05:53:22;;;;;;;57.83;27.45;;;;;;;;;;5055521;28;20483;-49
2022/02/04 05:58:35;;;;;;;81.07;36.67;;;;;;;;;;5055725;28;20021;-47
2022/02/04 06:06:51;;;;;;;72.20;34.13;;;;;;;;;;5055793;28;20028;-48
2022/02/04 06:10:09;;;;;;;55.72;25.67;;;;;;;;;;5054709;28;20041;-47
2022/02/04 06:12:45;;;;;;;61.10;27.70;;;;;;;;;;5054203;28;20091;-48
2022/02/04 06:23:20;;;;;;;57.75;27.73;;;;;;;;;;5055294;28;20036;-49
2022/02/04 06:25:47;;;;;;;62.60;29.70;;;;;;;;;;5054761;28;20375;-48
2022/02/04 06:28:16;;;;;;;54.30;26.40;;;;;;;;;;5054684;28;20044;-48
2022/02/04 06:30:42;;;;;;;69.00;27.98;;;;;;;;;;5055021;28;20025;-48
2022/02/04 06:33:09;;;;;;;56.28;27.30;;;;;;;;;;5054687;28;20029;-45
2022/02/04 06:35:35;;;;;;;54.42;24.48;;;;;;;;;;5054678;28;20128;-48
2022/02/04 06:38:02;;;;;;;56.28;25.08;;;;;;;;;;5054633;28;20469;-47
2022/02/04 06:40:28;;;;;;;57.13;25.45;;;;;;;;;;5054416;28;20035;-47
2022/02/04 06:42:55;;;;;;;49.70;23.13;;;;;;;;;;5054613;28;20465;-44
2022/02/04 06:45:23;;;;;;;54.45;23.88;;;;;;;;;;5054688;28;20032;-48
2022/02/04 06:47:50;;;;;;;48.60;25.05;;;;;;;;;;5054708;28;20074;-46
2022/02/04 06:50:16;;;;;;;55.45;26.23;;;;;;;;;;5054698;28;20233;-48
2022/02/04 06:52:43;;;;;;;60.45;29.92;;;;;;;;;;5054557;28;20029;-48
2022/02/04 06:55:10;;;;;;;54.95;25.00;;;;;;;;;;5054192;28;20040;-48
2022/02/04 06:57:36;;;;;;;48.58;23.30;;;;;;;;;;5054234;28;20025;-50
2022/02/04 07:00:04;;;;;;;44.22;23.98;;;;;;;;;;5054264;28;20036;-47
2022/02/04 07:02:30;;;;;;;45.70;23.70;;;;;;;;;;5054371;28;20029;-48
2022/02/04 07:04:56;;;;;;;44.72;22.17;;;;;;;;;;5054309;28;20032;-49
2022/02/04 07:07:22;;;;;;;43.75;21.85;;;;;;;;;;5054597;28;20028;-46
2022/02/04 07:09:57;;;;;;;48.60;22.60;;;;;;;;;;5053954;28;20036;-46
2022/02/04 07:12:34;;;;;;;42.25;20.90;;;;;;;;;;5054480;28;20017;-44
2022/02/04 07:17:39;;;;;;;41.05;21.17;;;;;;;;;;5054030;28;20032;-47
2022/02/04 07:20:05;;;;;;;38.40;21.40;;;;;;;;;;5053241;28;20114;-50
2022/02/04 07:22:34;;;;;;;45.50;23.60;;;;;;;;;;5053899;28;20380;-47
2022/02/04 07:25:01;;;;;;;47.33;23.52;;;;;;;;;;5053846;28;20025;-48
2022/02/04 07:27:27;;;;;;;49.53;23.98;;;;;;;;;;5054017;28;20023;-49
2022/02/04 07:29:55;;;;;;;44.65;24.27;;;;;;;;;;5052252;28;20099;-48
2022/02/04 07:43:16;;;;;;;77.63;38.35;;;;;;;;;;5053635;28;20044;-48
2022/02/04 07:45:42;;;;;;;51.33;25.33;;;;;;;;;;5053326;28;20056;-48
2022/02/04 07:48:08;;;;;;;58.22;26.75;;;;;;;;;;5053000;28;20462;-48
2022/02/04 07:50:35;;;;;;;49.00;25.70;;;;;;;;;;5052745;28;20052;-48
2022/02/04 07:53:01;;;;;;;41.67;22.23;;;;;;;;;;5052785;28;20382;-50
2022/02/04 07:55:27;;;;;;;45.63;23.73;;;;;;;;;;5052783;28;20564;-49
2022/02/04 07:57:56;;;;;;;41.10;22.52;;;;;;;;;;5052815;28;20397;-49
2022/02/04 08:00:22;;;;;;;43.28;22.63;;;;;;;;;;5052690;28;20489;-46
2022/02/04 08:02:49;;;;;;;44.17;24.27;;;;;;;;;;5052694;28;20017;-49
2022/02/04 08:05:19;;;;;;;52.40;24.90;;;;;;;;;;5052613;28;20096;-48
2022/02/04 08:39:14;;;;;;;44.15;21.23;;;;;;;;;;5034413;28;20133;-47
2022/02/04 08:55:39;;;;;;;49.75;22.77;;;;;;;;;;5015854;28;20124;-46
2022/02/04 09:06:18;;;;;;;35.63;18.50;;;;;;;;;;5015910;28;20438;-46
2022/02/04 09:08:48;;;;;;;46.25;22.63;;;;;;;;;;5015658;28;20039;-47
2022/02/04 09:11:37;;;;;;;44.60;22.77;;;;;;;;;;5015448;28;20473;-46
2022/02/04 09:17:06;;;;;;;38.40;17.35;;;;;;;;;;5015835;28;20183;-46
2022/02/04 09:20:10;;;;;;;42.72;19.80;;;;;;;;;;5014624;28;20032;-48
2022/02/04 09:22:42;;;;;;;52.42;24.85;;;;;;;;;;5018744;28;20743;-47
2022/02/04 09:25:08;;;;;;;36.80;17.77;;;;;;;;;;5023397;28;20389;-47
2022/02/04 09:27:35;;;;;;;36.30;18.58;;;;;;;;;;5024506;28;20029;-46
2022/02/04 09:30:02;;;;;;;40.42;19.00;;;;;;;;;;5023118;28;20064;-46
2022/02/04 09:32:29;;;;;;;46.40;23.50;;;;;;;;;;5023293;28;20525;-47
2022/02/04 09:34:55;;;;;;;46.28;23.58;;;;;;;;;;5023177;28;20033;-47
2022/02/04 09:37:22;;;;;;;36.63;18.33;;;;;;;;;;5024530;28;20021;-46
2022/02/04 09:39:48;;;;;;;44.40;21.85;;;;;;;;;;5023285;28;20032;-46
2022/02/04 09:42:14;;;;;;;35.83;18.02;;;;;;;;;;5022589;28;20021;-46
2022/02/04 09:44:40;;;;;;;44.47;19.67;;;;;;;;;;5023124;28;20041;-47
2022/02/04 09:47:06;;;;;;;51.88;25.55;;;;;;;;;;5022879;28;20382;-47
2022/02/04 09:49:38;;;;;;;41.50;21.35;;;;;;;;;;5023089;28;20339;-47
2022/02/04 10:14:39;;;;;;;30.70;16.20;;;;;;;;;;5021375;28;20450;-48
2022/02/04 10:17:17;;;;;;;19.13;11.65;;;;;;;;;;5023101;28;20405;-48
2022/02/04 10:22:15;;;;;;;23.95;13.10;;;;;;;;;;5023404;28;20068;-46
2022/02/04 10:24:41;;;;;;;24.83;12.02;;;;;;;;;;5023858;28;20017;-46
2022/02/04 10:27:18;;;;;;;26.58;12.63;;;;;;;;;;5022314;28;20414;-48
2022/02/04 10:29:51;;;;;;;28.15;12.77;;;;;;;;;;5022128;28;20053;-48
2022/02/04 10:32:23;;;;;;;28.95;14.30;;;;;;;;;;5022177;28;20504;-48
2022/02/04 10:35:04;;;;;;;23.83;11.13;;;;;;;;;;5023240;28;20041;-48
2022/02/04 10:37:33;;;;;;;20.80;9.65;;;;;;;;;;5022250;28;20052;-48
2022/02/04 10:40:14;;;;;;;17.10;8.25;;;;;;;;;;5023302;28;20025;-48
2022/02/04 10:42:57;;;;;;;22.98;9.70;;;;;;;;;;5022071;28;20040;-48
2022/02/04 10:56:39;;;;;;;21.30;9.65;;;;;;;;;;5021233;28;20056;-49
2022/02/04 11:02:57;;;;;;;16.92;7.55;;;;;;;;;;5020238;28;20041;-50
2022/02/04 11:05:18;;;;;;;36.90;13.55;;;;;;;;;;5018680;28;20411;-49
2022/02/04 11:08:47;;;;;;;28.58;12.70;;;;;;;;;;5019660;28;20164;-50
2022/02/04 11:35:47;;;;;;;23.50;13.20;;;;;;;;;;4960787;28;20035;-47
2022/02/04 11:55:11;;;;;;;20.45;10.02;;;;;;;;;;4970912;28;20044;-43
2022/02/04 11:57:38;;;;;;;22.95;10.27;;;;;;;;;;5021815;28;20055;-48
2022/02/04 12:00:04;;;;;;;22.63;11.57;;;;;;;;;;5020477;28;20059;-46
2022/02/04 12:02:33;;;;;;;24.90;13.48;;;;;;;;;;5020751;28;20026;-47
2022/02/04 12:05:08;;;;;;;22.83;12.05;;;;;;;;;;5020762;28;20030;-49
2022/02/04 12:07:35;;;;;;;29.75;14.55;;;;;;;;;;5020709;28;20571;-45
2022/02/04 12:10:01;;;;;;;25.23;11.55;;;;;;;;;;5020358;28;20896;-45
2022/02/04 12:13:09;;;;;;;16.48;9.05;;;;;;;;;;5021878;28;20017;-46
2022/02/04 12:15:47;;;;;;;15.23;8.02;;;;;;;;;;4999112;28;20038;-46
2022/02/04 12:18:14;;;;;;;17.98;9.15;;;;;;;;;;4998767;28;20022;-46
2022/02/04 12:20:58;;;;;;;16.05;8.90;;;;;;;;;;4999751;28;20458;-47
2022/02/04 12:23:27;;;;;;;20.00;10.52;;;;;;;;;;4999142;28;20091;-47
2022/02/04 12:25:55;;;;;;;18.33;9.65;;;;;;;;;;5000042;28;20060;-46
2022/02/04 12:28:39;;;;;;;19.27;10.82;;;;;;;;;;4998471;28;20124;-46
2022/02/04 12:31:12;;;;;;;21.73;8.20;;;;;;;;;;4998654;28;20041;-48
2022/02/04 12:33:45;;;;;;;17.63;7.28;;;;;;;;;;5000069;28;20042;-47
2022/02/04 12:36:15;;;;;;;13.30;6.97;;;;;;;;;;4998573;28;20784;-47
2022/02/04 12:38:42;;;;;;;20.40;10.00;;;;;;;;;;4999653;28;20036;-47
2022/02/04 12:41:08;;;;;;;23.17;11.45;;;;;;;;;;4999563;28;20041;-46
2022/02/04 12:43:37;;;;;;;40.30;21.08;;;;;;;;;;4998608;28;20149;-47
2022/02/04 12:46:04;;;;;;;28.77;14.43;;;;;;;;;;5006277;28;20313;-46
2022/02/04 12:48:31;;;;;;;13.77;8.57;;;;;;;;;;5020087;28;20499;-49
2022/02/04 12:50:57;;;;;;;26.13;13.98;;;;;;;;;;5021111;28;20459;-46
2022/02/04 12:53:27;;;;;;;31.48;15.60;;;;;;;;;;5020410;28;20099;-46
2022/02/04 12:56:07;;;;;;;24.45;13.32;;;;;;;;;;5019979;28;20030;-48
2022/02/04 12:58:55;;;;;;;26.50;14.27;;;;;;;;;;5020303;28;20120;-47
2022/02/04 13:12:06;;;;;;;17.35;7.95;;;;;;;;;;5019796;28;20425;-44
2022/02/04 13:14:32;;;;;;;16.13;7.97;;;;;;;;;;5021053;28;20921;-46
2022/02/04 13:16:58;;;;;;;16.73;9.35;;;;;;;;;;5019755;28;20026;-48
2022/02/04 13:19:25;;;;;;;12.90;6.13;;;;;;;;;;5024790;28;20029;-48
2022/02/04 13:21:51;;;;;;;10.65;6.43;;;;;;;;;;5024220;28;20032;-46
2022/02/04 13:24:19;;;;;;;15.02;6.60;;;;;;;;;;5023886;28;20141;-48
2022/02/04 13:26:46;;;;;;;14.43;6.43;;;;;;;;;;5023598;28;20025;-47
2022/02/04 13:29:12;;;;;;;18.83;8.57;;;;;;;;;;5023392;28;20444;-46
2022/02/04 13:31:40;;;;;;;9.60;4.85;;;;;;;;;;5023364;28;20095;-47
2022/02/04 13:34:13;;;;;;;13.02;3.95;;;;;;;;;;5023363;28;20520;-48
2022/02/04 13:36:43;;;;;;;14.50;4.60;;;;;;;;;;5024591;28;20021;-46
2022/02/04 13:39:21;;;;;;;9.10;3.75;;;;;;;;;;5023388;28;20025;-48
2022/02/04 13:47:19;;;;;;;6.13;3.20;;;;;;;;;;5024014;28;20431;-46
2022/02/04 13:52:20;;;;;;;9.45;4.82;;;;;;;;;;5023129;28;20037;-48
2022/02/04 13:55:00;;;;;;;8.40;4.50;;;;;;;;;;5022768;28;20060;-46
2022/02/04 13:57:40;;;;;;;12.48;5.78;;;;;;;;;;5022993;28;20040;-46
2022/02/04 14:00:27;;;;;;;21.02;5.75;;;;;;;;;;5024374;28;20335;-46
2022/02/04 14:02:57;;;;;;;20.23;8.73;;;;;;;;;;5023143;28;20427;-45
2022/02/04 14:05:26;;;;;;;20.83;7.47;;;;;;;;;;5022897;28;20029;-46
2022/02/04 14:07:55;;;;;;;13.60;5.68;;;;;;;;;;5023342;28;20029;-46
2022/02/04 14:10:33;;;;;;;15.98;6.40;;;;;;;;;;5023707;28;20052;-46
2022/02/04 14:13:00;;;;;;;22.95;9.77;;;;;;;;;;5022571;28;20033;-48
2022/02/04 14:15:31;;;;;;;31.13;8.07;;;;;;;;;;5023657;28;20562;-47
2022/02/04 14:18:00;;;;;;;11.00;4.90;;;;;;;;;;5023423;28;20048;-46
2022/02/04 14:20:27;;;;;;;13.80;6.30;;;;;;;;;;5022906;28;20029;-47
2022/02/04 14:22:53;;;;;;;19.50;5.78;;;;;;;;;;5022678;28;20025;-48
2022/02/04 14:25:21;;;;;;;17.60;8.65;;;;;;;;;;5022651;28;20550;-47
2022/02/04 14:27:52;;;;;;;20.17;8.95;;;;;;;;;;5023474;28;20524;-46
2022/02/04 14:30:23;;;;;;;21.73;9.93;;;;;;;;;;5023386;28;20452;-46
2022/02/04 14:34:09;;;;;;;17.88;9.25;;;;;;;;;;5022448;28;20032;-47
2022/02/04 14:36:12;;;;;;;20.42;8.35;;;;;;;;;;5022868;28;20049;-47
2022/02/04 15:00:35;;;;;;;46.17;23.27;;;;;;;;;;5034435;28;20551;-47
2022/02/04 15:05:42;;;;;;;39.67;20.17;;;;;;;;;;5034353;28;20386;-48
2022/02/04 15:08:15;;;;;;;43.70;25.55;;;;;;;;;;5034190;28;20017;-49
2022/02/04 15:10:43;;;;;;;52.53;25.67;;;;;;;;;;5036563;28;20441;-47
2022/02/04 15:13:15;;;;;;;42.85;24.75;;;;;;;;;;5053727;28;20021;-47
2022/02/04 15:15:42;;;;;;;34.25;18.02;;;;;;;;;;5053750;28;20119;-47
2022/02/04 15:18:10;;;;;;;42.50;19.45;;;;;;;;;;5053820;28;20079;-49
2022/02/04 15:20:36;;;;;;;52.58;24.63;;;;;;;;;;5053710;28;20595;-46
2022/02/04 15:23:03;;;;;;;82.55;38.47;;;;;;;;;;5053733;28;20025;-47
2022/02/04 15:25:29;;;;;;;71.38;37.55;;;;;;;;;;5053646;28;20108;-47
2022/02/04 15:28:14;;;;;;;80.97;37.72;;;;;;;;;;5053369;28;20032;-47
2022/02/04 15:30:44;;;;;;;60.30;29.65;;;;;;;;;;5053598;28;20503;-48
2022/02/04 15:33:10;;;;;;;59.67;29.15;;;;;;;;;;5053715;28;20407;-46
2022/02/04 15:35:36;;;;;;;49.97;25.90;;;;;;;;;;5053496;28;20421;-47
2022/02/04 15:38:02;;;;;;;51.42;26.42;;;;;;;;;;5053457;28;20049;-49
2022/02/04 15:40:29;;;;;;;38.53;22.25;;;;;;;;;;5052724;28;20032;-49
2022/02/04 15:42:58;;;;;;;46.45;23.80;;;;;;;;;;5053464;28;20021;-49
2022/02/04 15:53:37;;;;;;;53.80;20.80;;;;;;;;;;5053627;28;20032;-49
2022/02/04 16:01:49;;;;;;;46.70;24.70;;;;;;;;;;5053149;28;20079;-48
2022/02/04 16:06:21;;;;;;;51.22;25.50;;;;;;;;;;5052670;28;20029;-48
2022/02/04 16:08:50;;;;;;;48.35;26.75;;;;;;;;;;5052510;28;20496;-50
2022/02/04 16:11:34;;;;;;;53.30;28.42;;;;;;;;;;5051265;28;20051;-48
2022/02/04 16:14:14;;;;;;;53.10;28.65;;;;;;;;;;5050975;28;20495;-48
2022/02/04 16:16:47;;;;;;;47.40;26.65;;;;;;;;;;5051108;28;20033;-48
2022/02/04 16:19:28;;;;;;;46.00;26.73;;;;;;;;;;5049904;28;20014;-48
2022/02/04 16:28:38;;;;;;;66.68;35.55;;;;;;;;;;5052420;28;20033;-50
2022/02/04 16:29:57;;;;;;;108.13;64.28;;;;;;;;;;5050228;28;20126;-47
2022/02/04 16:32:23;;;;;;;121.57;72.55;;;;;;;;;;5052354;28;20112;-50
2022/02/04 16:34:54;;;;;;;112.97;66.78;;;;;;;;;;5052200;28;20032;-50
2022/02/04 16:37:29;;;;;;;120.63;63.70;;;;;;;;;;5052156;28;20087;-48
2022/02/04 16:39:55;;;;;;;116.15;62.30;;;;;;;;;;5050359;28;20074;-47
2022/02/04 16:42:21;;;;;;;103.00;52.60;;;;;;;;;;5052302;28;20020;-48
2022/02/04 16:44:47;;;;;;;98.97;51.45;;;;;;;;;;5052160;28;20021;-48
2022/02/04 16:47:16;;;;;;;100.55;48.50;;;;;;;;;;5052366;28;20024;-48
2022/02/04 16:49:42;;;;;;;92.95;45.80;;;;;;;;;;5052190;28;20049;-51
2022/02/04 16:52:09;;;;;;;110.68;51.20;;;;;;;;;;5052061;28;20021;-50
2022/02/04 16:54:37;;;;;;;101.82;51.83;;;;;;;;;;5056061;28;20028;-50
2022/02/04 16:57:03;;;;;;;116.57;53.15;;;;;;;;;;5055965;28;20079;-47
2022/02/04 16:59:30;;;;;;;105.25;51.33;;;;;;;;;;5055960;28;20017;-47
2022/02/04 17:01:57;;;;;;;153.55;84.95;;;;;;;;;;5055985;28;20032;-48
2022/02/04 17:04:24;;;;;;;666.30;422.80;;;;;;;;;;5055838;28;20017;-47
2022/02/04 17:06:59;;;;;;;499.33;283.08;;;;;;;;;;5055796;28;20465;-48
2022/02/04 17:09:33;;;;;;;395.10;207.00;;;;;;;;;;5055857;28;20457;-48
2022/02/04 17:12:05;;;;;;;400.20;207.68;;;;;;;;;;5054053;28;20465;-48
2022/02/04 17:14:34;;;;;;;336.88;158.88;;;;;;;;;;5053141;28;20036;-47
2022/02/04 17:17:01;;;;;;;179.27;103.40;;;;;;;;;;5055473;28;20720;-48
2022/02/04 17:19:32;;;;;;;234.90;130.95;;;;;;;;;;5056161;28;20103;-47
2022/02/04 17:22:04;;;;;;;222.95;129.20;;;;;;;;;;5056022;28;20025;-50
2022/02/04 17:24:33;;;;;;;212.18;112.45;;;;;;;;;;5055991;28;20033;-49
2022/02/04 17:27:00;;;;;;;173.18;92.47;;;;;;;;;;5056012;28;20472;-48
2022/02/04 17:29:30;;;;;;;112.32;63.03;;;;;;;;;;5055725;28;20063;-48
2022/02/04 17:31:56;;;;;;;130.48;73.70;;;;;;;;;;5055821;28;20470;-49
2022/02/04 17:34:23;;;;;;;83.25;48.40;;;;;;;;;;5055990;28;20396;-51
2022/02/04 17:36:51;;;;;;;86.68;49.83;;;;;;;;;;5055829;28;20056;-49
2022/02/04 17:39:23;;;;;;;73.57;42.38;;;;;;;;;;5055797;28;20021;-50
2022/02/04 17:41:51;;;;;;;59.08;28.98;;;;;;;;;;5055739;28;20154;-49
2022/02/04 17:44:18;;;;;;;24.20;11.68;;;;;;;;;;5055741;28;20017;-48
2022/02/04 17:46:45;;;;;;;22.83;11.23;;;;;;;;;;5055637;28;20028;-51
2022/02/04 17:55:10;;;;;;;29.35;15.50;;;;;;;;;;4974563;28;20058;-48
2022/02/04 17:57:44;;;;;;;;;;;;;;;;;;4974980;28;20065;-49
2022/02/04 18:02:42;;;;;;;91.78;45.20;;;;;;;;;;4974553;28;20031;-48
2022/02/04 18:07:51;;;;;;;156.15;71.10;;;;;;;;;;4974413;28;20452;-47
2022/02/04 18:10:17;;;;;;;373.38;132.95;;;;;;;;;;4974430;28;20034;-49
2022/02/04 18:12:43;;;;;;;186.05;67.82;;;;;;;;;;4974265;28;20046;-48
2022/02/04 18:15:09;;;;;;;67.70;31.00;;;;;;;;;;4974195;28;20030;-47
2022/02/04 18:17:35;;;;;;;358.98;162.38;;;;;;;;;;4974246;28;20046;-50
2022/02/04 18:20:02;;;;;;;327.60;154.30;;;;;;;;;;4974109;28;20183;-48
2022/02/04 18:22:28;;;;;;;361.20;158.10;;;;;;;;;;4974139;28;20039;-49
2022/02/04 18:24:55;;;;;;;231.65;113.93;;;;;;;;;;4974093;28;20031;-48
2022/02/04 18:27:22;;;;;;;243.98;110.47;;;;;;;;;;4973956;28;20046;-49
2022/02/04 18:29:55;;;;;;;254.60;121.47;;;;;;;;;;4973965;28;20058;-49
2022/02/04 18:32:23;;;;;;;282.50;132.10;;;;;;;;;;5043105;28;20036;-48
2022/02/04 18:34:50;;;;;;;271.80;126.97;;;;;;;;;;5053706;28;20029;-49
2022/02/04 18:37:18;;;;;;;236.60;115.97;;;;;;;;;;5054099;28;20449;-49
2022/02/04 18:45:08;;;;;;;299.73;167.07;;;;;;;;;;5054265;28;20021;-51
2022/02/04 18:47:52;;;;;;;438.05;290.35;;;;;;;;;;5052264;28;20025;-51
2022/02/04 18:50:38;;;;;;;449.90;286.88;;;;;;;;;;5053304;28;20020;-52
2022/02/04 18:58:18;;;;;;;288.10;151.85;;;;;;;;;;5052119;28;20124;-49
2022/02/04 19:00:46;;;;;;;295.33;153.02;;;;;;;;;;5052929;28;20501;-51
2022/02/04 19:03:19;;;;;;;295.23;163.07;;;;;;;;;;5050175;28;20540;-49
2022/02/04 19:06:03;;;;;;;283.55;155.55;;;;;;;;;;5052903;28;20478;-50
2022/02/04 19:08:36;;;;;;;164.25;87.93;;;;;;;;;;5052410;28;20119;-51
2022/02/04 19:11:02;;;;;;;154.35;77.55;;;;;;;;;;5052677;28;20465;-48
2022/02/04 19:13:38;;;;;;;140.82;71.68;;;;;;;;;;5052562;28;20048;-49
2022/02/04 19:18:56;;;;;;;255.93;122.60;;;;;;;;;;5052414;28;20021;-49
2022/02/04 19:21:47;;;;;;;143.15;69.97;;;;;;;;;;5051423;28;20044;-51
2022/02/04 19:24:12;;;;;;;112.78;59.38;;;;;;;;;;5043170;28;20412;-49
2022/02/04 19:26:38;;;;;;;142.32;72.65;;;;;;;;;;5015495;28;20033;-46
2022/02/04 19:29:06;;;;;;;150.30;79.47;;;;;;;;;;5018298;28;20049;-47
2022/02/04 19:31:39;;;;;;;210.00;112.47;;;;;;;;;;5017497;28;20036;-47
2022/02/04 19:34:06;;;;;;;223.20;106.65;;;;;;;;;;5018240;28;20029;-48
2022/02/04 19:36:36;;;;;;;240.50;112.32;;;;;;;;;;5017900;28;20029;-48
2022/02/04 19:39:03;;;;;;;247.40;118.57;;;;;;;;;;5017360;28;20029;-46
2022/02/04 19:41:32;;;;;;;188.32;90.95;;;;;;;;;;5017260;28;20029;-47
2022/02/04 19:43:59;;;;;;;202.45;98.78;;;;;;;;;;5018228;28;20056;-47
2022/02/04 19:46:30;;;;;;;287.98;129.07;;;;;;;;;;5017372;28;20389;-47
2022/02/04 19:48:59;;;;;;;334.38;155.90;;;;;;;;;;5017508;28;20036;-48
2022/02/04 19:51:39;;;;;;;287.23;134.70;;;;;;;;;;5018013;28;20021;-47
2022/02/04 20:26:01;;;;;;;135.70;63.05;;;;;;;;;;5017303;28;20138;-43
2022/02/04 20:28:27;;;;;;;118.05;53.83;;;;;;;;;;5017173;28;20047;-47
2022/02/04 20:30:54;;;;;;;101.22;52.80;;;;;;;;;;5019489;28;20036;-49
2022/02/04 20:33:20;;;;;;;104.75;50.78;;;;;;;;;;5019592;28;20096;-51
2022/02/04 20:35:48;;;;;;;141.75;72.05;;;;;;;;;;5018519;28;20099;-47
2022/02/04 20:38:16;;;;;;;136.25;70.93;;;;;;;;;;5018952;28;20148;-47
2022/02/04 20:40:43;;;;;;;173.43;84.28;;;;;;;;;;5018466;28;20100;-48
2022/02/04 20:43:14;;;;;;;181.27;90.72;;;;;;;;;;5018746;28;20083;-50
2022/02/04 20:45:40;;;;;;;167.45;83.53;;;;;;;;;;5019008;28;20040;-50
2022/02/04 20:48:07;;;;;;;121.53;60.88;;;;;;;;;;5018909;28;20156;-46
2022/02/04 20:50:33;;;;;;;125.10;65.15;;;;;;;;;;5018646;28;20024;-47
2022/02/04 20:53:00;;;;;;;130.93;67.90;;;;;;;;;;5017835;28;20045;-47
2022/02/04 20:55:26;;;;;;;127.07;64.72;;;;;;;;;;5017211;28;20045;-47
2022/02/04 20:57:57;;;;;;;130.30;69.47;;;;;;;;;;5017403;28;20067;-51
2022/02/04 21:00:27;;;;;;;138.40;69.45;;;;;;;;;;5017148;28;20037;-47
2022/02/04 21:02:54;;;;;;;126.00;63.88;;;;;;;;;;5017141;28;20026;-48
2022/02/04 21:05:23;;;;;;;102.63;51.13;;;;;;;;;;5017597;28;20064;-47
2022/02/04 21:08:12;;;;;;;102.85;54.97;;;;;;;;;;5017159;28;20032;-49
2022/02/04 21:16:10;;;;;;;159.85;76.18;;;;;;;;;;5016869;28;20431;-47
2022/02/04 21:18:37;;;;;;;194.68;90.18;;;;;;;;;;5016891;28;21133;-46
2022/02/04 21:21:03;;;;;;;207.00;94.70;;;;;;;;;;5017054;28;20370;-46
2022/02/04 21:23:29;;;;;;;151.57;77.38;;;;;;;;;;5018545;28;20172;-46
2022/02/04 21:25:59;;;;;;;145.55;77.75;;;;;;;;;;5017196;28;20087;-46
2022/02/04 21:28:27;;;;;;;132.23;67.35;;;;;;;;;;5016657;28;20033;-50
2022/02/04 21:30:53;;;;;;;120.90;66.78;;;;;;;;;;5017727;28;20033;-46
2022/02/04 21:38:30;;;;;;;100.72;47.35;;;;;;;;;;5017405;28;20064;-47
2022/02/04 21:40:59;;;;;;;95.80;48.33;;;;;;;;;;5020690;28;20036;-49
2022/02/04 21:43:25;;;;;;;94.45;47.55;;;;;;;;;;5020374;28;20013;-47
2022/02/04 21:45:58;;;;;;;112.05;55.72;;;;;;;;;;5020413;28;20025;-50
2022/02/04 21:48:24;;;;;;;139.07;63.30;;;;;;;;;;5019943;28;20040;-48
2022/02/04 21:50:51;;;;;;;128.00;55.90;;;;;;;;;;5020533;28;20033;-48
2022/02/04 21:53:18;;;;;;;129.70;53.30;;;;;;;;;;5021116;28;20770;-50